Leo — JD3199 — position and weather

sailwx.info

Track history (hours):
 
Tides and Currents Weather Stations Pressure Air Temp Water Temp Dewpoint Dewpoint Depression Visibility Wind Speed Wind Dir Waves Ship Positions

Leo

Last reported at 2018-Apr-26 01:29 UTC. Time now 2018-Apr-26 01:32 UTC.
Position N 35°18' E 139°45'.

Length 27 m; draft 2.8 m.

Type: Pilot. MMSI: 431002392.

Date/timePositionNaut miles runAvg speedWind from/ knotsBaromVisibWave heightAir tempDewpointWater temp
2018-Apr-26 01:29N 35°18' E 139°45'611.9
2018-Apr-26 01:00N 35°12' E 139°47'1 1.6
2018-Apr-26 00:30N 35°11' E 139°47'713.5
2018-Apr-26 00:00N 35°17' E 139°43'4 8.1
2018-Apr-25 23:30N 35°19' E 139°38'0 0.0
2018-Apr-25 22:59N 35°19' E 139°38'0 0.0
2018-Apr-25 22:28N 35°19' E 139°38'0 0.0
2018-Apr-24 06:50N 35°19' E 139°38'310.6
2018-Apr-24 06:30N 35°21' E 139°41'610.6
2018-Apr-24 05:59N 35°25' E 139°47'4 8.5
2018-Apr-24 05:30N 35°21' E 139°45'4 7.3
2018-Apr-24 05:00N 35°17' E 139°45'4 7.6
2018-Apr-24 04:30N 35°13' E 139°47'3 5.8
2018-Apr-24 04:00N 35°16' E 139°45'611.7
2018-Apr-24 03:30N 35°19' E 139°38'0 0.0
2018-Apr-24 03:00N 35°19' E 139°38'0 0.0
2018-Apr-24 02:31N 35°19' E 139°38'0 0.0
2018-Apr-24 01:59N 35°19' E 139°38'0 0.0
2018-Apr-24 01:28N 35°19' E 139°38'0 0.0
2018-Apr-24 01:00N 35°19' E 139°38'0 0.0
2018-Apr-24 00:30N 35°19' E 139°38'0 0.0
2018-Apr-24 00:00N 35°19' E 139°38'0 0.0
2018-Apr-23 23:29N 35°19' E 139°38'0 0.0
2018-Apr-23 23:00N 35°19' E 139°38'0 0.0
2018-Apr-23 22:30N 35°19' E 139°38'0 0.1
2018-Apr-23 22:00N 35°18' E 139°38'612.6
2018-Apr-23 21:30N 35°16' E 139°45'1 2.4
2018-Apr-23 21:00N 35°15' E 139°46'612.9
2018-Apr-23 20:31N 35°20' E 139°42'510.4
2018-Apr-23 20:00N 35°25' E 139°45'5 9.5
2018-Apr-23 19:31N 35°21' E 139°42'4 7.9
2018-Apr-23 19:00N 35°19' E 139°38'0 0.0
2018-Apr-23 18:30N 35°19' E 139°38'0 0.0
2018-Apr-23 08:14N 35°19' E 139°38'210.4
2018-Apr-23 08:01N 35°19' E 139°41'714.2
2018-Apr-23 07:30N 35°25' E 139°47'612.7
2018-Apr-23 07:00N 35°19' E 139°44'612.4
2018-Apr-23 06:30N 35°13' E 139°47'2 4.8
2018-Apr-23 06:00N 35°11' E 139°47'5 9.6
2018-Apr-23 05:30N 35°15' E 139°45'612.2
2018-Apr-23 05:00N 35°18' E 139°39'0 0.7
2018-Apr-23 04:30N 35°19' E 139°38'0 0.0
2018-Apr-23 04:00N 35°19' E 139°38'0 0.0
2018-Apr-23 03:30N 35°19' E 139°38'0 0.0
2018-Apr-23 03:00N 35°19' E 139°38'0 0.0
2018-Apr-23 02:30N 35°19' E 139°38'0 0.0
2018-Apr-23 02:01N 35°19' E 139°38'0 0.0
2018-Apr-23 01:30N 35°19' E 139°38'0 0.0
2018-Apr-23 00:59N 35°19' E 139°38'0 0.0
2018-Apr-23 00:30N 35°19' E 139°38'0 0.0
2018-Apr-23 00:00N 35°19' E 139°38'0 0.0
2018-Apr-22 23:29N 35°19' E 139°38'0 0.0
2018-Apr-22 23:00N 35°19' E 139°38'2 4.1
2018-Apr-22 22:30N 35°19' E 139°41'714.1
2018-Apr-22 22:00N 35°26' E 139°42'2 3.1
2018-Apr-22 21:30N 35°27' E 139°40'611.6
2018-Apr-22 21:00N 35°25' E 139°47'611.5
2018-Apr-22 20:30N 35°20' E 139°44'611.6
2018-Apr-22 20:00N 35°14' E 139°47'4 8.1
2018-Apr-22 19:30N 35°10' E 139°47'510.6
2018-Apr-22 19:00N 35°15' E 139°45'612.3
2018-Apr-22 18:31N 35°18' E 139°39'0 0.6
2018-Apr-22 17:59N 35°19' E 139°38'0 0.0
2018-Apr-22 09:02N 35°19' E 139°38'0 0.5
2018-Apr-22 09:00N 35°19' E 139°38'4 8.7
2018-Apr-22 08:30N 35°19' E 139°44'612.3
2018-Apr-22 08:00N 35°14' E 139°47'4 7.1
2018-Apr-22 07:31N 35°10' E 139°47'510.9
2018-Apr-22 07:00N 35°15' E 139°45'612.1
2018-Apr-22 06:30N 35°18' E 139°39'0 0.0
2018-Apr-21 08:23N 35°19' E 139°38'411.0
2018-Apr-21 08:01N 35°21' E 139°42'4 8.5
2018-Apr-21 07:30N 35°24' E 139°46'612.6
2018-Apr-21 07:00N 35°18' E 139°45'511.0
2018-Apr-21 06:30N 35°12' E 139°47'1 2.0
2018-Apr-21 06:00N 35°12' E 139°47'713.6
2018-Apr-21 05:31N 35°18' E 139°43'4 7.6
2018-Apr-21 05:00N 35°19' E 139°38'  
2018-Apr-18 22:51N 35°19' E 139°38'3 9.9
2018-Apr-18 22:31N 35°21' E 139°41'2 5.0
2018-Apr-18 22:00N 35°19' E 139°44'611.4
2018-Apr-18 21:31N 35°14' E 139°47'4 7.8
2018-Apr-18 21:00N 35°10' E 139°47'510.9
2018-Apr-18 20:30N 35°15' E 139°45'612.1
2018-Apr-18 20:00N 35°19' E 139°39'1 1.1
2018-Apr-18 19:29N 35°19' E 139°38'0 0.0
2018-Apr-18 19:00N 35°19' E 139°38'0 0.0
2018-Apr-18 05:38N 35°19' E 139°38'1 7.6
2018-Apr-18 05:30N 35°19' E 139°40'713.1
2018-Apr-18 05:00N 35°14' E 139°46'2 4.2
2018-Apr-18 04:30N 35°16' E 139°46'612.6
2018-Apr-18 04:00N 35°22' E 139°42'4 7.5
2018-Apr-18 03:30N 35°25' E 139°45'0 0.6
2018-Apr-18 03:00N 35°25' E 139°45'4 8.5
2018-Apr-18 02:30N 35°21' E 139°43'4 8.5
2018-Apr-18 02:00N 35°19' E 139°38'0 0.0
2018-Apr-18 01:30N 35°19' E 139°38'0 0.0
2018-Apr-18 01:00N 35°19' E 139°38'0 0.0
2018-Apr-18 00:30N 35°19' E 139°38'0 0.0
2018-Apr-18 00:00N 35°19' E 139°38'0 0.0
2018-Apr-17 23:30N 35°19' E 139°38'0 0.0
2018-Apr-17 23:00N 35°19' E 139°38'0 0.0
2018-Apr-17 22:30N 35°19' E 139°38'0 0.0
2018-Apr-17 22:00N 35°19' E 139°38'3 6.3
2018-Apr-17 21:31N 35°18' E 139°42'612.8
2018-Apr-17 21:01N 35°12' E 139°46'611.3
2018-Apr-17 20:30N 35°18' E 139°44'510.9
2018-Apr-17 20:00N 35°23' E 139°41'0 0.9
2018-Apr-17 19:30N 35°23' E 139°41'3 6.7
2018-Apr-17 19:00N 35°19' E 139°41'2 4.2
2018-Apr-17 18:30N 35°19' E 139°38'0 0.0
2018-Apr-17 10:13N 35°19' E 139°38'1 5.1
2018-Apr-17 10:00N 35°19' E 139°40'612.6
2018-Apr-17 09:30N 35°14' E 139°46'2 3.8
2018-Apr-17 09:00N 35°16' E 139°46'612.9
2018-Apr-17 08:30N 35°22' E 139°42'1 2.5
2018-Apr-17 08:00N 35°23' E 139°41'3 7.0
2018-Apr-17 07:30N 35°19' E 139°41'2 4.3
2018-Apr-17 07:00N 35°19' E 139°38'0 0.0
2018-Apr-17 06:27N 35°19' E 139°38'0 0.0
2018-Apr-16 22:15N 35°19' E 139°38'311.2
2018-Apr-16 22:01N 35°20' E 139°41'4 8.1
2018-Apr-16 21:31N 35°17' E 139°45'612.1
2018-Apr-16 21:00N 35°11' E 139°47'2 3.5
2018-Apr-16 20:31N 35°13' E 139°46'713.3
2018-Apr-16 20:00N 35°18' E 139°41'2 4.5
2018-Apr-16 19:29N 35°19' E 139°38'0 0.0
2018-Apr-16 12:18N 35°19' E 139°38'310.1
2018-Apr-16 12:01N 35°20' E 139°41'2 4.9
2018-Apr-16 11:30N 35°19' E 139°44'611.1
2018-Apr-16 11:00N 35°14' E 139°47'4 7.3
2018-Apr-16 10:30N 35°10' E 139°47'5 9.3
2018-Apr-16 10:01N 35°15' E 139°45'612.7
2018-Apr-16 09:30N 35°18' E 139°39'  
Track history (hours):
 
Tides and Currents Weather Stations Pressure Air Temp Water Temp Dewpoint Dewpoint Depression Visibility Wind Speed Wind Dir Waves Ship Positions

Leo

Last reported at 2018-Apr-26 01:29 UTC. Time now 2018-Apr-26 01:32 UTC.
Position N 35°18' E 139°45'.

Length 27 m; draft 2.8 m.

Type: Pilot. MMSI: 431002392.

Date/timePositionNaut miles runAvg speedWind from/ knotsBaromVisibWave heightAir tempDewpointWater temp
2018-Apr-26 01:29N 35°18' E 139°45'611.9
2018-Apr-26 01:00N 35°12' E 139°47'1 1.6
2018-Apr-26 00:30N 35°11' E 139°47'713.5
2018-Apr-26 00:00N 35°17' E 139°43'4 8.1
2018-Apr-25 23:30N 35°19' E 139°38'0 0.0
2018-Apr-25 22:59N 35°19' E 139°38'0 0.0
2018-Apr-25 22:28N 35°19' E 139°38'0 0.0
2018-Apr-24 06:50N 35°19' E 139°38'310.6
2018-Apr-24 06:30N 35°21' E 139°41'610.6
2018-Apr-24 05:59N 35°25' E 139°47'4 8.5
2018-Apr-24 05:30N 35°21' E 139°45'4 7.3
2018-Apr-24 05:00N 35°17' E 139°45'4 7.6
2018-Apr-24 04:30N 35°13' E 139°47'3 5.8
2018-Apr-24 04:00N 35°16' E 139°45'611.7
2018-Apr-24 03:30N 35°19' E 139°38'0 0.0
2018-Apr-24 03:00N 35°19' E 139°38'0 0.0
2018-Apr-24 02:31N 35°19' E 139°38'0 0.0
2018-Apr-24 01:59N 35°19' E 139°38'0 0.0
2018-Apr-24 01:28N 35°19' E 139°38'0 0.0
2018-Apr-24 01:00N 35°19' E 139°38'0 0.0
2018-Apr-24 00:30N 35°19' E 139°38'0 0.0
2018-Apr-24 00:00N 35°19' E 139°38'0 0.0
2018-Apr-23 23:29N 35°19' E 139°38'0 0.0
2018-Apr-23 23:00N 35°19' E 139°38'0 0.0
2018-Apr-23 22:30N 35°19' E 139°38'0 0.1
2018-Apr-23 22:00N 35°18' E 139°38'612.6
2018-Apr-23 21:30N 35°16' E 139°45'1 2.4
2018-Apr-23 21:00N 35°15' E 139°46'612.9
2018-Apr-23 20:31N 35°20' E 139°42'510.4
2018-Apr-23 20:00N 35°25' E 139°45'5 9.5
2018-Apr-23 19:31N 35°21' E 139°42'4 7.9
2018-Apr-23 19:00N 35°19' E 139°38'0 0.0
2018-Apr-23 18:30N 35°19' E 139°38'0 0.0
2018-Apr-23 08:14N 35°19' E 139°38'210.4
2018-Apr-23 08:01N 35°19' E 139°41'714.2
2018-Apr-23 07:30N 35°25' E 139°47'612.7
2018-Apr-23 07:00N 35°19' E 139°44'612.4
2018-Apr-23 06:30N 35°13' E 139°47'2 4.8
2018-Apr-23 06:00N 35°11' E 139°47'5 9.6
2018-Apr-23 05:30N 35°15' E 139°45'612.2
2018-Apr-23 05:00N 35°18' E 139°39'0 0.7
2018-Apr-23 04:30N 35°19' E 139°38'0 0.0
2018-Apr-23 04:00N 35°19' E 139°38'0 0.0
2018-Apr-23 03:30N 35°19' E 139°38'0 0.0
2018-Apr-23 03:00N 35°19' E 139°38'0 0.0
2018-Apr-23 02:30N 35°19' E 139°38'0 0.0
2018-Apr-23 02:01N 35°19' E 139°38'0 0.0
2018-Apr-23 01:30N 35°19' E 139°38'0 0.0
2018-Apr-23 00:59N 35°19' E 139°38'0 0.0
2018-Apr-23 00:30N 35°19' E 139°38'0 0.0
2018-Apr-23 00:00N 35°19' E 139°38'0 0.0
2018-Apr-22 23:29N 35°19' E 139°38'0 0.0
2018-Apr-22 23:00N 35°19' E 139°38'2 4.1
2018-Apr-22 22:30N 35°19' E 139°41'714.1
2018-Apr-22 22:00N 35°26' E 139°42'2 3.1
2018-Apr-22 21:30N 35°27' E 139°40'611.6
2018-Apr-22 21:00N 35°25' E 139°47'611.5
2018-Apr-22 20:30N 35°20' E 139°44'611.6
2018-Apr-22 20:00N 35°14' E 139°47'4 8.1
2018-Apr-22 19:30N 35°10' E 139°47'510.6
2018-Apr-22 19:00N 35°15' E 139°45'612.3
2018-Apr-22 18:31N 35°18' E 139°39'0 0.6
2018-Apr-22 17:59N 35°19' E 139°38'0 0.0
2018-Apr-22 09:02N 35°19' E 139°38'0 0.5
2018-Apr-22 09:00N 35°19' E 139°38'4 8.7
2018-Apr-22 08:30N 35°19' E 139°44'612.3
2018-Apr-22 08:00N 35°14' E 139°47'4 7.1
2018-Apr-22 07:31N 35°10' E 139°47'510.9
2018-Apr-22 07:00N 35°15' E 139°45'612.1
2018-Apr-22 06:30N 35°18' E 139°39'0 0.0
2018-Apr-21 08:23N 35°19' E 139°38'411.0
2018-Apr-21 08:01N 35°21' E 139°42'4 8.5
2018-Apr-21 07:30N 35°24' E 139°46'612.6
2018-Apr-21 07:00N 35°18' E 139°45'511.0
2018-Apr-21 06:30N 35°12' E 139°47'1 2.0
2018-Apr-21 06:00N 35°12' E 139°47'713.6
2018-Apr-21 05:31N 35°18' E 139°43'4 7.6
2018-Apr-21 05:00N 35°19' E 139°38'  
2018-Apr-18 22:51N 35°19' E 139°38'3 9.9
2018-Apr-18 22:31N 35°21' E 139°41'2 5.0
2018-Apr-18 22:00N 35°19' E 139°44'611.4
2018-Apr-18 21:31N 35°14' E 139°47'4 7.8
2018-Apr-18 21:00N 35°10' E 139°47'510.9
2018-Apr-18 20:30N 35°15' E 139°45'612.1
2018-Apr-18 20:00N 35°19' E 139°39'1 1.1
2018-Apr-18 19:29N 35°19' E 139°38'0 0.0
2018-Apr-18 19:00N 35°19' E 139°38'0 0.0
2018-Apr-18 05:38N 35°19' E 139°38'1 7.6
2018-Apr-18 05:30N 35°19' E 139°40'713.1
2018-Apr-18 05:00N 35°14' E 139°46'2 4.2
2018-Apr-18 04:30N 35°16' E 139°46'612.6
2018-Apr-18 04:00N 35°22' E 139°42'4 7.5
2018-Apr-18 03:30N 35°25' E 139°45'0 0.6
2018-Apr-18 03:00N 35°25' E 139°45'4 8.5
2018-Apr-18 02:30N 35°21' E 139°43'4 8.5
2018-Apr-18 02:00N 35°19' E 139°38'0 0.0
2018-Apr-18 01:30N 35°19' E 139°38'0 0.0
2018-Apr-18 01:00N 35°19' E 139°38'0 0.0
2018-Apr-18 00:30N 35°19' E 139°38'0 0.0
2018-Apr-18 00:00N 35°19' E 139°38'0 0.0
2018-Apr-17 23:30N 35°19' E 139°38'0 0.0
2018-Apr-17 23:00N 35°19' E 139°38'0 0.0
2018-Apr-17 22:30N 35°19' E 139°38'0 0.0
2018-Apr-17 22:00N 35°19' E 139°38'3 6.3
2018-Apr-17 21:31N 35°18' E 139°42'612.8
2018-Apr-17 21:01N 35°12' E 139°46'611.3
2018-Apr-17 20:30N 35°18' E 139°44'510.9
2018-Apr-17 20:00N 35°23' E 139°41'0 0.9
2018-Apr-17 19:30N 35°23' E 139°41'3 6.7
2018-Apr-17 19:00N 35°19' E 139°41'2 4.2
2018-Apr-17 18:30N 35°19' E 139°38'0 0.0
2018-Apr-17 10:13N 35°19' E 139°38'1 5.1
2018-Apr-17 10:00N 35°19' E 139°40'612.6
2018-Apr-17 09:30N 35°14' E 139°46'2 3.8
2018-Apr-17 09:00N 35°16' E 139°46'612.9
2018-Apr-17 08:30N 35°22' E 139°42'1 2.5
2018-Apr-17 08:00N 35°23' E 139°41'3 7.0
2018-Apr-17 07:30N 35°19' E 139°41'2 4.3
2018-Apr-17 07:00N 35°19' E 139°38'0 0.0
2018-Apr-17 06:27N 35°19' E 139°38'0 0.0
2018-Apr-16 22:15N 35°19' E 139°38'311.2
2018-Apr-16 22:01N 35°20' E 139°41'4 8.1
2018-Apr-16 21:31N 35°17' E 139°45'612.1
2018-Apr-16 21:00N 35°11' E 139°47'2 3.5
2018-Apr-16 20:31N 35°13' E 139°46'713.3
2018-Apr-16 20:00N 35°18' E 139°41'2 4.5
2018-Apr-16 19:29N 35°19' E 139°38'0 0.0
2018-Apr-16 12:18N 35°19' E 139°38'310.1
2018-Apr-16 12:01N 35°20' E 139°41'2 4.9
2018-Apr-16 11:30N 35°19' E 139°44'611.1
2018-Apr-16 11:00N 35°14' E 139°47'4 7.3
2018-Apr-16 10:30N 35°10' E 139°47'5 9.3
2018-Apr-16 10:01N 35°15' E 139°45'612.7
2018-Apr-16 09:30N 35°18' E 139°39'  

Dump ship's entire track history